createdAt,value
2022-09-12T00:01:50.352Z,99187.91
2022-09-12T00:04:17.176Z,99183.84
2022-09-12T00:06:44.096Z,99191.44
2022-09-12T00:09:14.171Z,99191.91
2022-09-12T00:11:43.799Z,99193.03
2022-09-12T00:14:12.854Z,99191.34
2022-09-12T00:16:40.008Z,99195.69
2022-09-12T00:19:07.796Z,99190.25
2022-09-12T00:21:36.836Z,99188.09
2022-09-12T00:24:04.612Z,99198.00
2022-09-12T00:26:32.234Z,99193.44
2022-09-12T00:28:58.952Z,99193.97
2022-09-12T00:31:27.101Z,99189.94
2022-09-12T00:33:56.825Z,99202.28
2022-09-12T00:36:25.535Z,99206.19
2022-09-12T00:38:54.757Z,99202.22
2022-09-12T00:41:26.208Z,99202.47
2022-09-12T00:44:24.233Z,99195.72
2022-09-12T00:47:25.187Z,99191.47
2022-09-12T00:50:12.802Z,99197.56
2022-09-12T00:52:51.147Z,99194.38
2022-09-12T00:55:22.436Z,99198.47
2022-09-12T00:57:51.886Z,99218.75
2022-09-12T01:00:22.630Z,99215.50
2022-09-12T01:02:57.552Z,99223.78
2022-09-12T01:05:25.910Z,99222.22
2022-09-12T01:07:53.119Z,99226.28
2022-09-12T01:10:20.351Z,99217.66
2022-09-12T01:12:48.092Z,99224.28
2022-09-12T01:15:14.827Z,99216.81
2022-09-12T01:17:47.288Z,99214.44
2022-09-12T01:20:26.611Z,99200.50
2022-09-12T01:23:11.676Z,99200.53
2022-09-12T01:25:59.612Z,99198.34
2022-09-12T01:28:38.046Z,99196.28
2022-09-12T01:31:21.464Z,99177.47
2022-09-12T01:33:53.936Z,99185.03
2022-09-12T01:37:04.891Z,99176.44
2022-09-12T01:39:49.843Z,99172.66
2022-09-12T01:42:28.399Z,99180.72
2022-09-12T01:45:10.193Z,99175.09
2022-09-12T01:47:42.261Z,99170.47
2022-09-12T01:50:25.139Z,99161.56
2022-09-12T01:53:02.343Z,99178.56
2022-09-12T01:55:34.471Z,99186.16
2022-09-12T01:58:09.828Z,99188.31
2022-09-12T02:00:52.954Z,99170.78
2022-09-12T02:03:25.665Z,99169.97
2022-09-12T02:06:01.776Z,99162.44
2022-09-12T02:08:37.017Z,99155.41
2022-09-12T02:11:13.288Z,99171.84
2022-09-12T02:13:48.428Z,99167.28
2022-09-12T02:16:22.211Z,99164.03
2022-09-12T02:18:57.633Z,99137.09
2022-09-12T02:21:27.897Z,99159.44
2022-09-12T02:23:59.561Z,99154.31
2022-09-12T02:26:40.556Z,99158.59
2022-09-12T02:29:07.514Z,99154.56
2022-09-12T02:31:44.561Z,99159.66
2022-09-12T02:34:49.439Z,99159.13
2022-09-12T02:37:16.309Z,99158.03
2022-09-12T02:39:45.361Z,99163.97
2022-09-12T02:42:13.545Z,99142.47
2022-09-12T02:44:41.254Z,99133.03
2022-09-12T02:47:13.124Z,99145.69
2022-09-12T02:49:39.900Z,99144.38
2022-09-12T02:52:06.837Z,99144.06
2022-09-12T02:54:33.735Z,99138.13
2022-09-12T02:57:00.474Z,99125.50
2022-09-12T02:59:27.629Z,99136.25
2022-09-12T03:02:12.099Z,99145.44
2022-09-12T03:05:08.539Z,99141.13
2022-09-12T03:08:00.272Z,99151.91
2022-09-12T03:10:41.209Z,99148.13
2022-09-12T03:13:33.334Z,99171.56
2022-09-12T03:16:16.916Z,99169.13
2022-09-12T03:18:53.989Z,99169.16
2022-09-12T03:21:30.567Z,99172.09
2022-09-12T03:24:05.213Z,99172.66
2022-09-12T03:26:36.506Z,99172.94
2022-09-12T03:29:05.384Z,99165.13
2022-09-12T03:31:32.062Z,99160.56
2022-09-12T03:34:00.192Z,99179.41
2022-09-12T03:36:29.803Z,99173.97
2022-09-12T03:38:57.377Z,99162.44
2022-09-12T03:41:24.233Z,99156.75
2022-09-12T03:43:51.143Z,99158.66
2022-09-12T03:46:17.849Z,99162.94
2022-09-12T03:48:44.618Z,99153.50
2022-09-12T03:51:11.683Z,99159.16
2022-09-12T03:53:38.484Z,99150.31
2022-09-12T03:56:10.511Z,99156.75
2022-09-12T03:58:37.827Z,99155.13
2022-09-12T04:01:13.375Z,99144.66
2022-09-12T04:03:41.653Z,99144.66
2022-09-12T04:06:10.347Z,99142.75
2022-09-12T04:08:41.188Z,99141.97
2022-09-12T04:11:13.452Z,99134.44
2022-09-12T04:13:42.588Z,99143.06
2022-09-12T04:16:09.537Z,99153.28
2022-09-12T04:18:36.848Z,99150.59
2022-09-12T04:21:08.759Z,99159.75
2022-09-12T04:23:35.744Z,99167.56
2022-09-12T04:26:06.539Z,99169.47
2022-09-12T04:28:35.159Z,99159.47
2022-09-12T04:31:07.707Z,99164.09
2022-09-12T04:33:36.156Z,99160.06
2022-09-12T04:36:04.754Z,99169.75
2022-09-12T04:38:31.838Z,99173.00
2022-09-12T04:40:58.543Z,99162.25
2022-09-12T04:43:25.369Z,99176.50
2022-09-12T04:45:52.095Z,99181.34
2022-09-12T04:48:19.123Z,99170.59
2022-09-12T04:50:45.815Z,99190.53
2022-09-12T04:53:12.495Z,99183.53
2022-09-12T04:55:39.125Z,99193.75
2022-09-12T04:58:05.772Z,99172.47
2022-09-12T05:00:33.435Z,99174.34
2022-09-12T05:03:00.367Z,99191.59
2022-09-12T05:05:27.581Z,99194.81
2022-09-12T05:07:54.259Z,99206.66
2022-09-12T05:10:20.936Z,99202.06
2022-09-12T05:12:48.407Z,99181.84
2022-09-12T05:15:15.200Z,99216.53
2022-09-12T05:17:41.853Z,99222.19
2022-09-12T05:20:09.589Z,99218.94
2022-09-12T05:22:36.343Z,99204.81
2022-09-12T05:25:03.133Z,99219.50
2022-09-12T05:27:29.869Z,99210.31
2022-09-12T05:29:56.693Z,99213.88
2022-09-12T05:32:23.403Z,99216.09
2022-09-12T05:34:50.958Z,99227.13
2022-09-12T05:37:17.749Z,99227.47
2022-09-12T05:39:44.479Z,99224.94
2022-09-12T05:42:11.988Z,99223.19
2022-09-12T05:44:38.709Z,99225.56
2022-09-12T05:47:05.614Z,99233.66
2022-09-12T05:49:32.323Z,99205.25
2022-09-12T05:51:59.045Z,99229.03
2022-09-12T05:54:31.372Z,99220.94
2022-09-12T05:56:58.568Z,99228.78
2022-09-12T05:59:25.609Z,99229.53
2022-09-12T06:01:52.528Z,99230.00
2022-09-12T06:04:19.249Z,99232.66
2022-09-12T06:06:46.471Z,99237.81
2022-09-12T06:09:15.519Z,99229.38
2022-09-12T06:11:43.061Z,99194.03
2022-09-12T06:14:12.838Z,99228.63
2022-09-12T06:16:40.084Z,99221.97
2022-09-12T06:19:13.127Z,99227.75
2022-09-12T06:21:40.141Z,99222.13
2022-09-12T06:24:07.758Z,99225.44
2022-09-12T06:26:35.632Z,99243.59
2022-09-12T06:29:02.451Z,99243.88
2022-09-12T06:31:31.971Z,99241.69
2022-09-12T06:34:02.121Z,99241.81
2022-09-12T06:36:34.136Z,99241.75
2022-09-12T06:39:04.266Z,99220.44
2022-09-12T06:41:32.064Z,99250.34
2022-09-12T06:43:59.539Z,99242.91
2022-09-12T06:46:27.067Z,99242.09
2022-09-12T06:48:56.196Z,99239.56
2022-09-12T06:51:23.162Z,99236.34
2022-09-12T06:53:50.372Z,99247.47
2022-09-12T06:56:22.540Z,99251.56
2022-09-12T06:58:50.740Z,99242.25
2022-09-12T07:01:23.410Z,99248.41
2022-09-12T07:03:59.434Z,99236.25
2022-09-12T07:06:32.172Z,99231.84
2022-09-12T07:09:00.451Z,99230.34
2022-09-12T07:11:32.193Z,99228.88
2022-09-12T07:14:00.904Z,99223.25
2022-09-12T07:16:28.392Z,99223.53
2022-09-12T07:18:57.758Z,99224.34
2022-09-12T07:21:24.810Z,99226.06
2022-09-12T07:23:52.159Z,99230.44
2022-09-12T07:26:19.286Z,99243.34
2022-09-12T07:28:46.071Z,99221.00
2022-09-12T07:31:15.238Z,99227.50
2022-09-12T07:33:42.949Z,99234.94
2022-09-12T07:36:15.144Z,99242.00
2022-09-12T07:38:43.813Z,99231.06
2022-09-12T07:41:21.481Z,99237.00
2022-09-12T07:43:48.379Z,99248.63
2022-09-12T07:46:15.271Z,99241.75
2022-09-12T07:48:42.019Z,99236.69
2022-09-12T07:51:10.942Z,99242.31
2022-09-12T07:53:40.996Z,99237.09
2022-09-12T07:56:10.432Z,99247.75
2022-09-12T07:58:39.215Z,99242.47
2022-09-12T08:01:07.466Z,99243.88
2022-09-12T08:03:37.296Z,99239.69
2022-09-12T08:06:04.921Z,99233.94
2022-09-12T08:08:31.768Z,99235.06
2022-09-12T08:11:06.050Z,99245.19
2022-09-12T08:13:34.755Z,99231.81
2022-09-12T08:16:04.992Z,99227.19
2022-09-12T08:18:32.858Z,99164.44
2022-09-12T08:21:01.606Z,99230.88
2022-09-12T08:23:29.409Z,99229.47
2022-09-12T08:26:05.280Z,99234.69
2022-09-12T08:28:34.480Z,99213.31
2022-09-12T08:31:06.258Z,99223.66
2022-09-12T08:33:33.763Z,99219.34
2022-09-12T08:36:07.697Z,99222.06
2022-09-12T08:38:35.988Z,99216.38
2022-09-12T08:41:18.056Z,99221.88
2022-09-12T08:44:03.578Z,99203.19
2022-09-12T08:46:39.125Z,99206.22
2022-09-12T08:49:12.166Z,99217.03
2022-09-12T08:51:40.116Z,99207.22
2022-09-12T08:54:20.556Z,99204.34
2022-09-12T08:56:48.408Z,99202.34
2022-09-12T08:59:15.784Z,99208.91
2022-09-12T09:01:45.730Z,99147.50
2022-09-12T09:04:41.727Z,99194.25
2022-09-12T09:07:19.188Z,99199.81
2022-09-12T09:10:07.906Z,99189.28
2022-09-12T09:12:55.746Z,99188.50
2022-09-12T09:15:34.545Z,99188.81
2022-09-12T09:18:32.980Z,99173.16
2022-09-12T09:21:10.487Z,99187.81
2022-09-12T09:23:45.030Z,99199.97
2022-09-12T09:26:28.289Z,99186.59
2022-09-12T09:29:10.401Z,99192.63
2022-09-12T09:31:42.316Z,99148.44
2022-09-12T09:34:23.651Z,99186.53
2022-09-12T09:37:09.790Z,99173.03
2022-09-12T09:39:45.261Z,99184.06
2022-09-12T09:42:18.224Z,99184.38
2022-09-12T09:44:48.392Z,99191.56
2022-09-12T09:47:16.573Z,99185.78
2022-09-12T09:49:43.330Z,99185.34
2022-09-12T09:52:14.952Z,99181.13
2022-09-12T09:54:49.586Z,99173.88
2022-09-12T09:57:34.656Z,99183.28
2022-09-12T10:00:33.020Z,99188.69
2022-09-12T10:03:14.595Z,99178.88
2022-09-12T10:05:51.363Z,99182.09
2022-09-12T10:08:38.039Z,99176.59
2022-09-12T10:11:19.699Z,99179.97
2022-09-12T10:14:05.456Z,99175.41
2022-09-12T10:16:34.764Z,99189.69
2022-09-12T10:19:03.307Z,99185.56
2022-09-12T10:21:41.282Z,99195.63
2022-09-12T10:24:42.409Z,99191.31
2022-09-12T10:27:12.071Z,99203.38
2022-09-12T10:29:52.451Z,99194.31
2022-09-12T10:32:36.214Z,99175.13
2022-09-12T10:35:09.139Z,99172.50
2022-09-12T10:37:41.544Z,99180.69
2022-09-12T10:40:23.992Z,99182.88
2022-09-12T10:42:53.333Z,99173.16
2022-09-12T10:45:24.812Z,99178.97
2022-09-12T10:47:53.660Z,99182.81
2022-09-12T10:50:26.843Z,99194.84
2022-09-12T10:53:19.299Z,99181.88
2022-09-12T10:55:56.273Z,99178.38
2022-09-12T10:58:32.433Z,99180.84
2022-09-12T11:01:16.791Z,99179.47
2022-09-12T11:04:01.903Z,99176.00
2022-09-12T11:06:54.730Z,99157.19
2022-09-12T11:09:31.417Z,99169.00
2022-09-12T11:11:58.082Z,99170.88
2022-09-12T11:14:52.524Z,99171.81
2022-09-12T11:17:25.493Z,99164.88
2022-09-12T11:20:21.261Z,99170.72
2022-09-12T11:23:14.021Z,99159.63
2022-09-12T11:26:04.441Z,99158.25
2022-09-12T11:28:34.618Z,99165.97
2022-09-12T11:31:16.737Z,99163.81
2022-09-12T11:33:53.092Z,99160.63
2022-09-12T11:36:32.340Z,99156.84
2022-09-12T11:39:22.169Z,99154.97
2022-09-12T11:41:57.786Z,99148.47
2022-09-12T11:44:40.357Z,99146.19
2022-09-12T11:47:14.639Z,99142.69
2022-09-12T11:49:41.232Z,99151.22
2022-09-12T11:52:16.294Z,99140.34
2022-09-12T11:54:52.796Z,99141.16
2022-09-12T11:57:38.861Z,99136.94
2022-09-12T12:00:06.204Z,99139.38
2022-09-12T12:02:57.779Z,99145.88
2022-09-12T12:05:28.964Z,99136.22
2022-09-12T12:07:58.792Z,99122.22
2022-09-12T12:10:39.179Z,99133.91
2022-09-12T12:13:16.484Z,99135.09
2022-09-12T12:15:53.629Z,99143.06
2022-09-12T12:18:24.958Z,99128.09
2022-09-12T12:20:53.837Z,99120.84
2022-09-12T12:23:31.578Z,99125.09
2022-09-12T12:26:01.073Z,99128.50
2022-09-12T12:28:58.966Z,99126.41
2022-09-12T12:31:25.867Z,99134.59
2022-09-12T12:33:54.923Z,99121.84
2022-09-12T12:36:40.448Z,99124.63
2022-09-12T12:39:32.074Z,99121.53
2022-09-12T12:42:00.079Z,99129.94
2022-09-12T12:44:45.079Z,99130.47
2022-09-12T12:47:27.672Z,99115.22
2022-09-12T12:50:14.579Z,99123.63
2022-09-12T12:53:06.015Z,99126.75
2022-09-12T12:55:41.672Z,99127.31
2022-09-12T12:58:31.975Z,99130.19
2022-09-12T13:01:19.591Z,99125.25
2022-09-12T13:03:54.639Z,99132.13
2022-09-12T13:06:39.835Z,99121.66
2022-09-12T13:09:09.497Z,99136.69
2022-09-12T13:11:39.082Z,99127.63
2022-09-12T13:14:27.389Z,99136.47
2022-09-12T13:16:58.765Z,99135.03
2022-09-12T13:19:32.568Z,99135.66
2022-09-12T13:22:05.145Z,99136.06
2022-09-12T13:24:32.496Z,99133.84
2022-09-12T13:26:59.564Z,99133.72
2022-09-12T13:29:28.099Z,99134.97
2022-09-12T13:32:03.939Z,99131.28
2022-09-12T13:34:37.392Z,99127.09
2022-09-12T13:37:10.223Z,99130.44
2022-09-12T13:39:46.305Z,99129.53
2022-09-12T13:42:41.285Z,99133.81
2022-09-12T13:45:15.120Z,99139.75
2022-09-12T13:47:44.617Z,99139.19
2022-09-12T13:50:21.425Z,99129.69
2022-09-12T13:55:53.723Z,99127.09
2022-09-12T13:58:24.482Z,99131.63
2022-09-12T14:01:01.601Z,99117.28
2022-09-12T14:03:51.171Z,99130.28
2022-09-12T14:06:20.215Z,99137.72
2022-09-12T14:08:48.381Z,99138.66
2022-09-12T14:11:28.739Z,99134.13
2022-09-12T14:13:56.097Z,99122.94
2022-09-12T14:16:24.167Z,99140.19
2022-09-12T14:18:54.697Z,99143.91
2022-09-12T14:21:24.643Z,99139.53
2022-09-12T14:23:51.524Z,99147.47
2022-09-12T14:26:18.783Z,99144.41
2022-09-12T14:28:49.784Z,99146.44
2022-09-12T14:31:22.229Z,99148.56
2022-09-12T14:34:09.007Z,99153.69
2022-09-12T14:36:42.389Z,99156.13
2022-09-12T14:39:22.366Z,99153.22
2022-09-12T14:41:50.105Z,99150.31
2022-09-12T14:44:24.799Z,99145.34
2022-09-12T14:46:51.953Z,99154.34
2022-09-12T14:49:21.378Z,99154.84
2022-09-12T14:51:51.445Z,99147.94
2022-09-12T14:54:30.425Z,99145.38
2022-09-12T14:56:59.749Z,99150.22
2022-09-12T14:59:35.476Z,99146.25
2022-09-12T15:02:17.136Z,99148.81
2022-09-12T15:04:47.448Z,99141.88
2022-09-12T15:07:35.326Z,99138.66
2022-09-12T15:10:05.544Z,99145.44
2022-09-12T15:12:32.285Z,99125.34
2022-09-12T15:15:17.200Z,99142.84
2022-09-12T15:17:44.107Z,99151.94
2022-09-12T15:20:12.131Z,99144.28
2022-09-12T15:22:39.749Z,99145.56
2022-09-12T15:25:07.028Z,99137.91
2022-09-12T15:27:33.755Z,99142.00
2022-09-12T15:30:00.584Z,99141.38
2022-09-12T15:32:30.183Z,99145.16
2022-09-12T15:34:57.039Z,99153.97
2022-09-12T15:37:24.861Z,99138.88
2022-09-12T15:39:52.058Z,99143.16
2022-09-12T15:42:27.987Z,99149.13
2022-09-12T15:44:58.398Z,99149.56
2022-09-12T15:47:27.407Z,99141.81
2022-09-12T15:49:54.075Z,99155.06
2022-09-12T15:52:20.757Z,99162.13
2022-09-12T15:54:47.598Z,99159.91
2022-09-12T15:57:14.323Z,99168.75
2022-09-12T15:59:40.970Z,99161.66
2022-09-12T16:02:09.995Z,99159.66
2022-09-12T16:04:41.693Z,99155.28
2022-09-12T16:07:08.345Z,99157.31
2022-09-12T16:09:35.102Z,99154.50
2022-09-12T16:12:02.152Z,99147.66
2022-09-12T16:14:29.024Z,99166.75
2022-09-12T16:16:58.471Z,99157.38
2022-09-12T16:19:26.540Z,99161.06
2022-09-12T16:21:53.199Z,99148.88
2022-09-12T16:24:19.897Z,99153.13
2022-09-12T16:26:46.656Z,99157.25
2022-09-12T16:29:14.529Z,99162.25
2022-09-12T16:31:41.204Z,99160.84
2022-09-12T16:34:07.999Z,99161.66
2022-09-12T16:36:34.689Z,99163.84
2022-09-12T16:39:01.513Z,99159.00
2022-09-12T16:41:28.414Z,99166.25
2022-09-12T16:43:55.794Z,99170.66
2022-09-12T16:46:25.270Z,99174.88
2022-09-12T16:48:54.525Z,99171.56
2022-09-12T16:51:30.995Z,99174.88
2022-09-12T16:53:58.012Z,99180.78
2022-09-12T16:56:25.821Z,99182.47
2022-09-12T16:58:53.336Z,99181.03
2022-09-12T17:01:24.858Z,99190.69
2022-09-12T17:03:56.670Z,99181.09
2022-09-12T17:06:25.281Z,99187.81
2022-09-12T17:08:54.167Z,99182.28
2022-09-12T17:11:23.583Z,99188.91
2022-09-12T17:14:04.321Z,99195.81
2022-09-12T17:16:33.448Z,99201.72
2022-09-12T17:19:00.232Z,99196.44
2022-09-12T17:21:27.156Z,99200.72
2022-09-12T17:23:54.383Z,99198.84
2022-09-12T17:26:21.095Z,99202.16
2022-09-12T17:28:47.868Z,99194.28
2022-09-12T17:31:15.173Z,99193.47
2022-09-12T17:33:42.334Z,99203.63
2022-09-12T17:36:12.204Z,99206.03
2022-09-12T17:38:39.957Z,99143.19
2022-09-12T17:41:08.348Z,99216.56
2022-09-12T17:43:39.578Z,99212.59
2022-09-12T17:46:06.596Z,99219.88
2022-09-12T17:48:33.723Z,99220.88
2022-09-12T17:51:10.804Z,99217.78
2022-09-12T17:53:38.333Z,99211.19
2022-09-12T17:56:06.124Z,99222.56
2022-09-12T17:58:33.938Z,99225.03
2022-09-12T18:01:37.910Z,99223.22
2022-09-12T18:04:04.853Z,99223.31
2022-09-12T18:06:32.960Z,99213.31
2022-09-12T18:09:06.044Z,99224.78
2022-09-12T18:11:33.370Z,99231.03
2022-09-12T18:14:00.592Z,99228.75
2022-09-12T18:16:28.589Z,99236.34
2022-09-12T18:18:55.557Z,99240.56
2022-09-12T18:21:22.308Z,99231.31
2022-09-12T18:23:49.108Z,99245.56
2022-09-12T18:26:15.988Z,99230.59
2022-09-12T18:28:44.612Z,99243.66
2022-09-12T18:31:17.563Z,99245.84
2022-09-12T18:33:44.368Z,99243.22
2022-09-12T18:36:14.331Z,99238.25
2022-09-12T18:38:42.347Z,99243.72
2022-09-12T18:41:15.027Z,99240.25
2022-09-12T18:43:42.438Z,99239.84
2022-09-12T18:46:17.833Z,99228.56
2022-09-12T18:48:45.790Z,99233.63
2022-09-12T18:51:14.781Z,99240.25
2022-09-12T18:53:42.559Z,99227.94
2022-09-12T18:56:12.221Z,99238.63
2022-09-12T18:58:40.740Z,99227.88
2022-09-12T19:01:16.610Z,99225.47
2022-09-12T19:03:43.987Z,99233.09
2022-09-12T19:06:31.236Z,99218.59
2022-09-12T19:09:00.157Z,99234.81
2022-09-12T19:11:29.477Z,99229.84
2022-09-12T19:13:56.742Z,99238.53
2022-09-12T19:16:26.992Z,99244.75
2022-09-12T19:18:56.096Z,99254.22
2022-09-12T19:21:26.192Z,99247.75
2022-09-12T19:23:55.967Z,99256.41
2022-09-12T19:26:23.051Z,99247.84
2022-09-12T19:28:49.949Z,99244.91
2022-09-12T19:31:20.200Z,99250.84
2022-09-12T19:33:48.221Z,99251.13
2022-09-12T19:36:41.164Z,99227.38
2022-09-12T19:39:07.178Z,99245.41
2022-09-12T19:41:34.914Z,99251.84
2022-09-12T19:44:02.108Z,99242.44
2022-09-12T19:46:28.841Z,99241.63
2022-09-12T19:48:55.677Z,99245.69
2022-09-12T19:51:24.280Z,99245.47
2022-09-12T19:53:51.359Z,99244.91
2022-09-12T19:56:19.002Z,99237.94
2022-09-12T19:58:49.856Z,99234.19
2022-09-12T20:01:30.214Z,99240.50
2022-09-12T20:03:58.176Z,99230.63
2022-09-12T20:06:26.274Z,99226.03
2022-09-12T20:08:53.068Z,99222.56
2022-09-12T20:11:23.955Z,99240.34
2022-09-12T20:13:51.152Z,99178.72
2022-09-12T20:16:22.362Z,99234.13
2022-09-12T20:18:55.714Z,99232.91
2022-09-12T20:21:25.510Z,99237.19
2022-09-12T20:23:52.724Z,99244.19
2022-09-12T20:26:20.465Z,99240.09
2022-09-12T20:28:47.432Z,99243.59
2022-09-12T20:31:16.658Z,99247.38
2022-09-12T20:33:43.971Z,99243.25
2022-09-12T20:36:17.731Z,99241.97
2022-09-12T20:38:57.150Z,99240.22
2022-09-12T20:41:25.629Z,99240.97
2022-09-12T20:43:53.420Z,99236.09
2022-09-12T20:46:22.166Z,99240.38
2022-09-12T20:48:50.006Z,99220.19
2022-09-12T20:51:17.052Z,99168.47
2022-09-12T20:53:43.775Z,99239.91
2022-09-12T20:56:10.532Z,99226.25
2022-09-12T20:58:40.505Z,99237.88
2022-09-12T21:01:11.816Z,99239.50
2022-09-12T21:03:39.837Z,99242.19
2022-09-12T21:06:08.418Z,99244.63
2022-09-12T21:08:36.192Z,99248.38
2022-09-12T21:11:03.616Z,99250.00
2022-09-12T21:13:30.299Z,99245.69
2022-09-12T21:16:02.072Z,99238.75
2022-09-12T21:18:29.383Z,99260.00
2022-09-12T21:20:56.826Z,99254.34
2022-09-12T21:23:25.401Z,99256.22
2022-09-12T21:25:52.919Z,99256.44
2022-09-12T21:28:20.507Z,99260.16
2022-09-12T21:30:51.854Z,99251.28
2022-09-12T21:33:20.290Z,99261.03
2022-09-12T21:35:47.594Z,99199.63
2022-09-12T21:38:18.645Z,99231.94
2022-09-12T21:40:46.768Z,99251.03
2022-09-12T21:43:14.173Z,99256.69
2022-09-12T21:45:40.930Z,99262.88
2022-09-12T21:48:07.785Z,99254.19
2022-09-12T21:50:34.716Z,99246.41
2022-09-12T21:53:01.641Z,99263.91
2022-09-12T21:55:28.419Z,99261.03
2022-09-12T21:57:55.596Z,99248.88
2022-09-12T22:00:23.025Z,99248.88
2022-09-12T22:02:49.849Z,99261.00
2022-09-12T22:05:17.273Z,99263.72
2022-09-12T22:07:44.045Z,99246.47
2022-09-12T22:10:11.137Z,99258.91
2022-09-12T22:12:37.781Z,99258.91
2022-09-12T22:15:22.831Z,99265.91
2022-09-12T22:17:52.046Z,99248.16
2022-09-12T22:20:18.877Z,99247.63
2022-09-12T22:23:03.967Z,99268.09
2022-09-12T22:25:30.997Z,99258.94
2022-09-12T22:27:58.430Z,99264.34
2022-09-12T22:30:27.990Z,99238.72
2022-09-12T22:32:54.762Z,99263.78
2022-09-12T22:35:21.492Z,99267.56
2022-09-12T22:37:48.184Z,99265.94
2022-09-12T22:40:15.833Z,99249.75
2022-09-12T22:42:42.946Z,99259.75
2022-09-12T22:45:10.055Z,99264.88
2022-09-12T22:47:36.931Z,99269.22
2022-09-12T22:50:04.366Z,99277.25
2022-09-12T22:52:31.150Z,99264.34
2022-09-12T22:54:58.679Z,99277.28
2022-09-12T22:57:25.842Z,99273.50
2022-09-12T22:59:52.535Z,99245.47
2022-09-12T23:02:19.250Z,99276.22
2022-09-12T23:04:47.063Z,99275.94
2022-09-12T23:07:13.800Z,99264.63
2022-09-12T23:09:40.655Z,99252.75
2022-09-12T23:12:07.525Z,99274.56
2022-09-12T23:14:36.575Z,99255.19
2022-09-12T23:17:04.753Z,99253.81
2022-09-12T23:19:31.423Z,99273.22
2022-09-12T23:21:58.122Z,99281.31
2022-09-12T23:24:24.834Z,99279.16
2022-09-12T23:26:51.505Z,99276.72
2022-09-12T23:29:18.194Z,99267.56
2022-09-12T23:31:45.079Z,99267.00
2022-09-12T23:34:11.764Z,99271.06
2022-09-12T23:36:38.458Z,99270.28
2022-09-12T23:39:05.394Z,99274.03
2022-09-12T23:41:32.324Z,99258.13
2022-09-12T23:43:59.096Z,99249.47
2022-09-12T23:46:25.917Z,99251.09
2022-09-12T23:48:53.651Z,99259.72
2022-09-12T23:51:21.908Z,99262.16
2022-09-12T23:53:49.014Z,99265.69
2022-09-12T23:56:15.949Z,99254.38
2022-09-12T23:58:42.731Z,99268.09
